sensor_id;sensor_type;location;lat;lon;timestamp;pressure;altitude;pressure_sealevel;temperature;humidity
63556;BME280;49700;48.072;7.800;2023-04-30T00:01:37;99665.66;;;14.51;nan
63556;BME280;49700;48.072;7.800;2023-04-30T00:04:02;99668.41;;;14.50;nan
63556;BME280;49700;48.072;7.800;2023-04-30T00:06:28;99659.78;;;14.48;nan
63556;BME280;49700;48.072;7.800;2023-04-30T00:08:53;99653.75;;;14.46;nan
63556;BME280;49700;48.072;7.800;2023-04-30T00:11:18;99657.38;;;14.45;nan
63556;BME280;49700;48.072;7.800;2023-04-30T00:13:44;99658.31;;;14.44;nan
63556;BME280;49700;48.072;7.800;2023-04-30T00:16:09;99655.56;;;14.45;nan
63556;BME280;49700;48.072;7.800;2023-04-30T00:18:35;99660.13;;;14.43;nan
63556;BME280;49700;48.072;7.800;2023-04-30T00:21:01;99654.94;;;14.42;nan
63556;BME280;49700;48.072;7.800;2023-04-30T00:23:26;99652.31;;;14.42;nan
63556;BME280;49700;48.072;7.800;2023-04-30T00:25:51;99653.16;;;14.42;nan
63556;BME280;49700;48.072;7.800;2023-04-30T00:28:17;99655.69;;;14.44;nan
63556;BME280;49700;48.072;7.800;2023-04-30T00:30:42;99654.00;;;14.43;nan
63556;BME280;49700;48.072;7.800;2023-04-30T00:33:09;99664.81;;;14.39;nan
63556;BME280;49700;48.072;7.800;2023-04-30T00:35:34;99658.66;;;14.39;nan
63556;BME280;49700;48.072;7.800;2023-04-30T00:37:59;99651.81;;;14.36;nan
63556;BME280;49700;48.072;7.800;2023-04-30T00:40:25;99649.31;;;14.35;nan
63556;BME280;49700;48.072;7.800;2023-04-30T00:42:51;99649.56;;;14.32;nan
63556;BME280;49700;48.072;7.800;2023-04-30T00:45:17;99648.84;;;14.30;nan
63556;BME280;49700;48.072;7.800;2023-04-30T00:47:46;99651.72;;;14.27;nan
63556;BME280;49700;48.072;7.800;2023-04-30T00:50:12;99644.88;;;14.24;nan
63556;BME280;49700;48.072;7.800;2023-04-30T00:52:43;99647.88;;;14.20;nan
63556;BME280;49700;48.072;7.800;2023-04-30T00:55:11;99644.75;;;14.14;nan
63556;BME280;49700;48.072;7.800;2023-04-30T00:57:37;99638.03;;;14.10;nan
63556;BME280;49700;48.072;7.800;2023-04-30T01:00:03;99632.13;;;14.07;nan
63556;BME280;49700;48.072;7.800;2023-04-30T01:02:29;99635.16;;;14.02;nan
63556;BME280;49700;48.072;7.800;2023-04-30T01:04:56;99613.53;;;13.97;nan
63556;BME280;49700;48.072;7.800;2023-04-30T01:07:23;99615.78;;;13.90;nan
63556;BME280;49700;48.072;7.800;2023-04-30T01:09:49;99611.97;;;13.83;nan
63556;BME280;49700;48.072;7.800;2023-04-30T01:12:36;99603.91;;;13.73;nan
63556;BME280;49700;48.072;7.800;2023-04-30T01:20:10;99597.75;;;13.50;nan
63556;BME280;49700;48.072;7.800;2023-04-30T01:22:57;99605.78;;;13.49;nan
63556;BME280;49700;48.072;7.800;2023-04-30T01:28:08;99594.22;;;13.39;nan
63556;BME280;49700;48.072;7.800;2023-04-30T01:30:35;99601.53;;;13.35;nan
63556;BME280;49700;48.072;7.800;2023-04-30T01:33:02;99603.34;;;13.35;nan
63556;BME280;49700;48.072;7.800;2023-04-30T01:41:19;99601.72;;;13.21;nan
63556;BME280;49700;48.072;7.800;2023-04-30T01:46:22;99608.50;;;13.12;nan
63556;BME280;49700;48.072;7.800;2023-04-30T01:51:37;99604.09;;;13.13;nan
63556;BME280;49700;48.072;7.800;2023-04-30T01:54:31;99601.31;;;13.14;nan
63556;BME280;49700;48.072;7.800;2023-04-30T01:57:02;99602.88;;;13.17;nan
63556;BME280;49700;48.072;7.800;2023-04-30T01:59:34;99601.06;;;13.17;nan
63556;BME280;49700;48.072;7.800;2023-04-30T02:02:02;99604.69;;;13.16;nan
63556;BME280;49700;48.072;7.800;2023-04-30T02:04:27;99600.38;;;13.15;nan
63556;BME280;49700;48.072;7.800;2023-04-30T02:06:53;99608.38;;;13.14;nan
63556;BME280;49700;48.072;7.800;2023-04-30T02:09:18;99607.56;;;13.13;nan
63556;BME280;49700;48.072;7.800;2023-04-30T02:11:44;99605.75;;;13.14;nan
63556;BME280;49700;48.072;7.800;2023-04-30T02:14:09;99606.59;;;13.14;nan
63556;BME280;49700;48.072;7.800;2023-04-30T02:16:34;99609.34;;;13.13;nan
63556;BME280;49700;48.072;7.800;2023-04-30T02:19:00;99615.56;;;13.12;nan
63556;BME280;49700;48.072;7.800;2023-04-30T02:21:26;99605.97;;;13.11;nan
63556;BME280;49700;48.072;7.800;2023-04-30T02:23:52;99607.66;;;13.12;nan
63556;BME280;49700;48.072;7.800;2023-04-30T02:26:17;99605.16;;;13.10;nan
63556;BME280;49700;48.072;7.800;2023-04-30T02:28:43;99605.38;;;13.07;nan
63556;BME280;49700;48.072;7.800;2023-04-30T02:31:09;99607.28;;;13.05;nan
63556;BME280;49700;48.072;7.800;2023-04-30T02:33:35;99607.28;;;13.05;nan
63556;BME280;49700;48.072;7.800;2023-04-30T02:36:01;99599.38;;;13.05;nan
63556;BME280;49700;48.072;7.800;2023-04-30T02:38:27;99593.25;;;13.04;nan
63556;BME280;49700;48.072;7.800;2023-04-30T02:40:52;99604.50;;;13.06;nan
63556;BME280;49700;48.072;7.800;2023-04-30T02:43:17;99604.63;;;13.05;nan
63556;BME280;49700;48.072;7.800;2023-04-30T02:45:43;99608.00;;;13.07;nan
63556;BME280;49700;48.072;7.800;2023-04-30T02:48:08;99604.50;;;13.06;nan
63556;BME280;49700;48.072;7.800;2023-04-30T02:50:33;99603.56;;;13.07;nan
63556;BME280;49700;48.072;7.800;2023-04-30T02:52:59;99608.94;;;13.06;nan
63556;BME280;49700;48.072;7.800;2023-04-30T02:55:24;99610.84;;;13.04;nan
63556;BME280;49700;48.072;7.800;2023-04-30T02:57:50;99599.59;;;13.02;nan
63556;BME280;49700;48.072;7.800;2023-04-30T03:00:15;99602.47;;;12.99;nan
63556;BME280;49700;48.072;7.800;2023-04-30T03:02:42;99605.19;;;12.97;nan
63556;BME280;49700;48.072;7.800;2023-04-30T03:05:07;99606.03;;;12.98;nan
63556;BME280;49700;48.072;7.800;2023-04-30T03:07:33;99601.59;;;12.98;nan
63556;BME280;49700;48.072;7.800;2023-04-30T03:09:58;99603.31;;;12.99;nan
63556;BME280;49700;48.072;7.800;2023-04-30T03:12:24;99600.66;;;12.99;nan
63556;BME280;49700;48.072;7.800;2023-04-30T03:14:49;99604.13;;;13.00;nan
63556;BME280;49700;48.072;7.800;2023-04-30T03:17:14;99598.03;;;12.99;nan
63556;BME280;49700;48.072;7.800;2023-04-30T03:19:40;99597.06;;;13.00;nan
63556;BME280;49700;48.072;7.800;2023-04-30T03:22:06;99600.44;;;13.02;nan
63556;BME280;49700;48.072;7.800;2023-04-30T03:24:31;99588.91;;;13.03;nan
63556;BME280;49700;48.072;7.800;2023-04-30T03:26:57;99588.91;;;13.03;nan
63556;BME280;49700;48.072;7.800;2023-04-30T03:29:22;99595.75;;;13.06;nan
63556;BME280;49700;48.072;7.800;2023-04-30T03:31:47;99589.56;;;13.07;nan
63556;BME280;49700;48.072;7.800;2023-04-30T03:34:13;99583.09;;;13.11;nan
63556;BME280;49700;48.072;7.800;2023-04-30T03:36:39;99578.53;;;13.13;nan
63556;BME280;49700;48.072;7.800;2023-04-30T03:39:04;99582.97;;;13.13;nan
63556;BME280;49700;48.072;7.800;2023-04-30T03:41:30;99577.06;;;13.09;nan
63556;BME280;49700;48.072;7.800;2023-04-30T03:43:55;99579.94;;;13.06;nan
63556;BME280;49700;48.072;7.800;2023-04-30T03:46:20;99573.94;;;13.04;nan
63556;BME280;49700;48.072;7.800;2023-04-30T03:48:47;99584.47;;;13.04;nan
63556;BME280;49700;48.072;7.800;2023-04-30T03:51:13;99581.00;;;13.03;nan
63556;BME280;49700;48.072;7.800;2023-04-30T03:53:38;99580.28;;;13.01;nan
63556;BME280;49700;48.072;7.800;2023-04-30T03:56:04;99582.06;;;13.01;nan
63556;BME280;49700;48.072;7.800;2023-04-30T03:58:30;99577.63;;;13.01;nan
63556;BME280;49700;48.072;7.800;2023-04-30T04:00:55;99582.22;;;12.99;nan
63556;BME280;49700;48.072;7.800;2023-04-30T04:03:21;99575.97;;;13.00;nan
63556;BME280;49700;48.072;7.800;2023-04-30T04:05:47;99567.09;;;13.01;nan
63556;BME280;49700;48.072;7.800;2023-04-30T04:08:13;99577.63;;;13.01;nan
63556;BME280;49700;48.072;7.800;2023-04-30T04:10:38;99569.63;;;13.03;nan
63556;BME280;49700;48.072;7.800;2023-04-30T04:13:05;99576.47;;;13.05;nan
63556;BME280;49700;48.072;7.800;2023-04-30T04:15:32;99576.47;;;13.05;nan
63556;BME280;49700;48.072;7.800;2023-04-30T04:17:58;99581.84;;;13.04;nan
63556;BME280;49700;48.072;7.800;2023-04-30T04:20:23;99581.84;;;13.04;nan
63556;BME280;49700;48.072;7.800;2023-04-30T04:22:49;99575.75;;;13.03;nan
63556;BME280;49700;48.072;7.800;2023-04-30T04:25:14;99574.91;;;13.03;nan
63556;BME280;49700;48.072;7.800;2023-04-30T04:27:43;99585.53;;;13.01;nan
63556;BME280;49700;48.072;7.800;2023-04-30T04:30:08;99586.50;;;13.00;nan
63556;BME280;49700;48.072;7.800;2023-04-30T04:32:34;99590.94;;;13.00;nan
63556;BME280;49700;48.072;7.800;2023-04-30T04:35:07;99588.31;;;13.00;nan
63556;BME280;49700;48.072;7.800;2023-04-30T04:37:33;99590.94;;;13.00;nan
63556;BME280;49700;48.072;7.800;2023-04-30T04:39:59;99592.63;;;13.01;nan
63556;BME280;49700;48.072;7.800;2023-04-30T04:42:25;99589.97;;;13.01;nan
63556;BME280;49700;48.072;7.800;2023-04-30T04:44:50;99596.97;;;13.02;nan
63556;BME280;49700;48.072;7.800;2023-04-30T04:47:16;99589.06;;;13.02;nan
63556;BME280;49700;48.072;7.800;2023-04-30T04:49:43;99591.78;;;13.00;nan
63556;BME280;49700;48.072;7.800;2023-04-30T04:52:09;99585.53;;;13.01;nan
63556;BME280;49700;48.072;7.800;2023-04-30T04:54:35;99595.91;;;13.04;nan
63556;BME280;49700;48.072;7.800;2023-04-30T04:57:00;99597.34;;;13.09;nan
63556;BME280;49700;48.072;7.800;2023-04-30T04:59:28;99599.75;;;13.12;nan
63556;BME280;49700;48.072;7.800;2023-04-30T05:01:53;99593.41;;;13.14;nan
63556;BME280;49700;48.072;7.800;2023-04-30T05:04:19;99590.44;;;13.19;nan
63556;BME280;49700;48.072;7.800;2023-04-30T05:06:44;99593.66;;;13.22;nan
63556;BME280;49700;48.072;7.800;2023-04-30T05:09:10;99595.22;;;13.25;nan
63556;BME280;49700;48.072;7.800;2023-04-30T05:11:36;99594.09;;;13.29;nan
63556;BME280;49700;48.072;7.800;2023-04-30T05:14:02;99603.34;;;13.35;nan
63556;BME280;49700;48.072;7.800;2023-04-30T05:16:27;99600.34;;;13.39;nan
63556;BME280;49700;48.072;7.800;2023-04-30T05:18:53;99601.81;;;13.43;nan
63556;BME280;49700;48.072;7.800;2023-04-30T05:21:18;99598.00;;;13.47;nan
63556;BME280;49700;48.072;7.800;2023-04-30T05:23:43;99602.06;;;13.52;nan
63556;BME280;49700;48.072;7.800;2023-04-30T05:26:09;99605.28;;;13.55;nan
63556;BME280;49700;48.072;7.800;2023-04-30T05:28:34;99599.69;;;13.60;nan
63556;BME280;49700;48.072;7.800;2023-04-30T05:31:00;99597.53;;;13.65;nan
63556;BME280;49700;48.072;7.800;2023-04-30T05:33:25;99595.50;;;13.68;nan
63556;BME280;49700;48.072;7.800;2023-04-30T05:35:51;99601.25;;;13.73;nan
63556;BME280;49700;48.072;7.800;2023-04-30T05:38:16;99591.91;;;13.81;nan
63556;BME280;49700;48.072;7.800;2023-04-30T05:40:42;99602.00;;;13.87;nan
63556;BME280;49700;48.072;7.800;2023-04-30T05:43:07;99586.41;;;13.95;nan
63556;BME280;49700;48.072;7.800;2023-04-30T05:45:33;99593.97;;;14.00;nan
63556;BME280;49700;48.072;7.800;2023-04-30T05:47:58;99582.66;;;14.09;nan
63556;BME280;49700;48.072;7.800;2023-04-30T05:50:23;99591.44;;;14.21;nan
63556;BME280;49700;48.072;7.800;2023-04-30T05:52:49;99579.06;;;14.32;nan
63556;BME280;49700;48.072;7.800;2023-04-30T05:55:14;99589.03;;;14.40;nan
63556;BME280;49700;48.072;7.800;2023-04-30T05:57:40;99580.50;;;14.48;nan
63556;BME280;49700;48.072;7.800;2023-04-30T06:00:06;99574.69;;;14.65;nan
63556;BME280;49700;48.072;7.800;2023-04-30T06:02:37;99585.34;;;14.86;nan
63556;BME280;49700;48.072;7.800;2023-04-30T06:05:03;99582.28;;;15.02;nan
63556;BME280;49700;48.072;7.800;2023-04-30T06:07:28;99574.13;;;15.15;nan
63556;BME280;49700;48.072;7.800;2023-04-30T06:09:54;99577.59;;;15.26;nan
63556;BME280;49700;48.072;7.800;2023-04-30T06:12:20;99586.19;;;15.40;nan
63556;BME280;49700;48.072;7.800;2023-04-30T06:14:45;99571.50;;;15.57;nan
63556;BME280;49700;48.072;7.800;2023-04-30T06:17:11;99580.69;;;15.74;nan
63556;BME280;49700;48.072;7.800;2023-04-30T06:19:37;99581.19;;;15.88;nan
63556;BME280;49700;48.072;7.800;2023-04-30T06:22:03;99576.53;;;16.02;nan
63556;BME280;49700;48.072;7.800;2023-04-30T06:24:29;99580.72;;;16.14;nan
63556;BME280;49700;48.072;7.800;2023-04-30T06:26:55;99573.66;;;16.24;nan
63556;BME280;49700;48.072;7.800;2023-04-30T06:29:20;99582.75;;;16.31;nan
63556;BME280;49700;48.072;7.800;2023-04-30T06:31:48;99584.31;;;16.34;nan
63556;BME280;49700;48.072;7.800;2023-04-30T06:34:15;99580.56;;;16.36;nan
63556;BME280;49700;48.072;7.800;2023-04-30T06:36:40;99585.56;;;16.40;nan
63556;BME280;49700;48.072;7.800;2023-04-30T06:39:05;99590.03;;;16.39;nan
63556;BME280;49700;48.072;7.800;2023-04-30T06:41:31;99585.31;;;16.43;nan
63556;BME280;49700;48.072;7.800;2023-04-30T06:43:56;99578.88;;;16.45;nan
63556;BME280;49700;48.072;7.800;2023-04-30T06:46:22;99578.63;;;16.48;nan
63556;BME280;49700;48.072;7.800;2023-04-30T06:48:47;99582.81;;;16.51;nan
63556;BME280;49700;48.072;7.800;2023-04-30T06:51:13;99586.16;;;16.53;nan
63556;BME280;49700;48.072;7.800;2023-04-30T06:53:38;99578.78;;;16.56;nan
63556;BME280;49700;48.072;7.800;2023-04-30T06:56:04;99581.03;;;16.71;nan
63556;BME280;49700;48.072;7.800;2023-04-30T06:58:29;99579.81;;;16.94;nan
63556;BME280;49700;48.072;7.800;2023-04-30T07:00:54;99564.84;;;17.22;nan
63556;BME280;49700;48.072;7.800;2023-04-30T07:03:20;99569.72;;;17.46;nan
63556;BME280;49700;48.072;7.800;2023-04-30T07:05:45;99570.44;;;17.96;nan
63556;BME280;49700;48.072;7.800;2023-04-30T07:08:11;99571.00;;;18.54;nan
63556;BME280;49700;48.072;7.800;2023-04-30T07:10:37;99559.94;;;19.13;nan
63556;BME280;49700;48.072;7.800;2023-04-30T07:13:02;99567.97;;;19.83;nan
63556;BME280;49700;48.072;7.800;2023-04-30T07:15:28;99558.22;;;20.42;nan
63556;BME280;49700;48.072;7.800;2023-04-30T07:17:53;99549.66;;;20.97;nan
63556;BME280;49700;48.072;7.800;2023-04-30T07:20:19;99556.38;;;21.26;nan
63556;BME280;49700;48.072;7.800;2023-04-30T07:22:45;99549.38;;;21.41;nan
63556;BME280;49700;48.072;7.800;2023-04-30T07:25:11;99548.34;;;21.51;nan
63556;BME280;49700;48.072;7.800;2023-04-30T07:27:37;99550.84;;;21.69;nan
63556;BME280;49700;48.072;7.800;2023-04-30T07:30:03;99535.88;;;21.99;nan
63556;BME280;49700;48.072;7.800;2023-04-30T07:32:29;99542.75;;;22.33;nan
63556;BME280;49700;48.072;7.800;2023-04-30T07:34:54;99544.31;;;22.58;nan
63556;BME280;49700;48.072;7.800;2023-04-30T07:37:20;99542.44;;;22.82;nan
63556;BME280;49700;48.072;7.800;2023-04-30T07:39:46;99538.19;;;23.18;nan
63556;BME280;49700;48.072;7.800;2023-04-30T07:42:11;99541.25;;;23.30;nan
63556;BME280;49700;48.072;7.800;2023-04-30T07:44:37;99543.50;;;23.04;nan
63556;BME280;49700;48.072;7.800;2023-04-30T07:47:03;99538.28;;;22.56;nan
63556;BME280;49700;48.072;7.800;2023-04-30T07:49:29;99547.81;;;22.19;nan
63556;BME280;49700;48.072;7.800;2023-04-30T07:51:54;99550.16;;;22.22;nan
63556;BME280;49700;48.072;7.800;2023-04-30T07:54:20;99555.84;;;22.19;nan
63556;BME280;49700;48.072;7.800;2023-04-30T07:56:46;99547.31;;;22.16;nan
63556;BME280;49700;48.072;7.800;2023-04-30T07:59:13;99552.81;;;22.22;nan
63556;BME280;49700;48.072;7.800;2023-04-30T08:01:38;99553.19;;;22.19;nan
63556;BME280;49700;48.072;7.800;2023-04-30T08:04:03;99553.59;;;22.39;nan
63556;BME280;49700;48.072;7.800;2023-04-30T08:06:29;99551.84;;;22.15;nan
63556;BME280;49700;48.072;7.800;2023-04-30T08:08:54;99550.81;;;22.24;nan
63556;BME280;49700;48.072;7.800;2023-04-30T08:11:20;99555.50;;;22.30;nan
63556;BME280;49700;48.072;7.800;2023-04-30T08:13:45;99554.72;;;22.05;nan
63556;BME280;49700;48.072;7.800;2023-04-30T08:16:11;99562.75;;;22.05;nan
63556;BME280;49700;48.072;7.800;2023-04-30T08:18:37;99565.00;;;21.77;nan
63556;BME280;49700;48.072;7.800;2023-04-30T08:21:12;99567.72;;;21.53;nan
63556;BME280;49700;48.072;7.800;2023-04-30T08:23:37;99560.03;;;21.58;nan
63556;BME280;49700;48.072;7.800;2023-04-30T08:26:03;99561.00;;;21.73;nan
63556;BME280;49700;48.072;7.800;2023-04-30T08:28:28;99565.56;;;21.48;nan
63556;BME280;49700;48.072;7.800;2023-04-30T08:30:54;99560.53;;;21.29;nan
63556;BME280;49700;48.072;7.800;2023-04-30T08:33:19;99565.19;;;21.35;nan
63556;BME280;49700;48.072;7.800;2023-04-30T08:35:45;99566.72;;;21.29;nan
63556;BME280;49700;48.072;7.800;2023-04-30T08:38:10;99575.22;;;21.16;nan
63556;BME280;49700;48.072;7.800;2023-04-30T08:40:36;99566.38;;;21.08;nan
63556;BME280;49700;48.072;7.800;2023-04-30T08:43:08;99570.56;;;21.18;nan
63556;BME280;49700;48.072;7.800;2023-04-30T08:45:35;99558.22;;;21.17;nan
63556;BME280;49700;48.072;7.800;2023-04-30T08:48:02;99565.06;;;21.12;nan
63556;BME280;49700;48.072;7.800;2023-04-30T08:50:29;99564.38;;;21.02;nan
63556;BME280;49700;48.072;7.800;2023-04-30T08:52:56;99561.19;;;21.06;nan
63556;BME280;49700;48.072;7.800;2023-04-30T08:55:23;99570.22;;;21.05;nan
63556;BME280;49700;48.072;7.800;2023-04-30T08:57:50;99573.00;;;20.87;nan
63556;BME280;49700;48.072;7.800;2023-04-30T09:00:15;99570.66;;;20.76;nan
63556;BME280;49700;48.072;7.800;2023-04-30T09:02:41;99562.97;;;20.65;nan
63556;BME280;49700;48.072;7.800;2023-04-30T09:05:12;99560.16;;;20.66;nan
63556;BME280;49700;48.072;7.800;2023-04-30T09:07:40;99559.16;;;20.84;nan
63556;BME280;49700;48.072;7.800;2023-04-30T09:10:17;99554.53;;;21.02;nan
63556;BME280;49700;48.072;7.800;2023-04-30T09:13:03;99546.84;;;21.07;nan
63556;BME280;49700;48.072;7.800;2023-04-30T09:15:30;99542.34;;;21.08;nan
63556;BME280;49700;48.072;7.800;2023-04-30T09:18:17;99545.16;;;21.06;nan
63556;BME280;49700;48.072;7.800;2023-04-30T09:21:01;99545.50;;;21.03;nan
63556;BME280;49700;48.072;7.800;2023-04-30T09:23:27;99544.31;;;20.97;nan
63556;BME280;49700;48.072;7.800;2023-04-30T09:25:53;99540.50;;;21.00;nan
63556;BME280;49700;48.072;7.800;2023-04-30T09:28:18;99539.84;;;21.14;nan
63556;BME280;49700;48.072;7.800;2023-04-30T09:30:48;99543.16;;;21.33;nan
63556;BME280;49700;48.072;7.800;2023-04-30T09:33:13;99537.66;;;21.26;nan
63556;BME280;49700;48.072;7.800;2023-04-30T09:35:39;99538.34;;;21.28;nan
63556;BME280;49700;48.072;7.800;2023-04-30T09:38:28;99532.13;;;21.36;nan
63556;BME280;49700;48.072;7.800;2023-04-30T09:40:54;99531.50;;;21.26;nan
63556;BME280;49700;48.072;7.800;2023-04-30T09:43:19;99533.00;;;21.28;nan
63556;BME280;49700;48.072;7.800;2023-04-30T09:45:46;99530.97;;;21.38;nan
63556;BME280;49700;48.072;7.800;2023-04-30T09:48:22;99525.94;;;21.35;nan
63556;BME280;49700;48.072;7.800;2023-04-30T09:50:48;99526.97;;;21.26;nan
63556;BME280;49700;48.072;7.800;2023-04-30T09:53:15;99528.31;;;21.22;nan
63556;BME280;49700;48.072;7.800;2023-04-30T09:55:48;99518.13;;;21.26;nan
63556;BME280;49700;48.072;7.800;2023-04-30T09:58:15;99526.78;;;21.28;nan
63556;BME280;49700;48.072;7.800;2023-04-30T10:00:41;99508.28;;;21.26;nan
63556;BME280;49700;48.072;7.800;2023-04-30T10:03:09;99502.75;;;21.52;nan
63556;BME280;49700;48.072;7.800;2023-04-30T10:05:42;99505.50;;;21.83;nan
63556;BME280;49700;48.072;7.800;2023-04-30T10:08:26;99506.31;;;21.84;nan
63556;BME280;49700;48.072;7.800;2023-04-30T10:10:57;99504.16;;;21.87;nan
63556;BME280;49700;48.072;7.800;2023-04-30T10:13:24;99494.78;;;21.83;nan
63556;BME280;49700;48.072;7.800;2023-04-30T10:15:58;99490.44;;;21.91;nan
63556;BME280;49700;48.072;7.800;2023-04-30T10:18:28;99490.72;;;22.04;nan
63556;BME280;49700;48.072;7.800;2023-04-30T10:20:55;99483.44;;;21.81;nan
63556;BME280;49700;48.072;7.800;2023-04-30T10:23:21;99492.38;;;21.49;nan
63556;BME280;49700;48.072;7.800;2023-04-30T10:25:47;99487.56;;;21.36;nan
63556;BME280;49700;48.072;7.800;2023-04-30T10:28:14;99495.91;;;21.33;nan
63556;BME280;49700;48.072;7.800;2023-04-30T10:30:40;99488.91;;;21.24;nan
63556;BME280;49700;48.072;7.800;2023-04-30T10:35:58;99485.91;;;21.03;nan
63556;BME280;49700;48.072;7.800;2023-04-30T10:38:26;99488.25;;;20.89;nan
63556;BME280;49700;48.072;7.800;2023-04-30T10:40:57;99493.59;;;20.73;nan
63556;BME280;49700;48.072;7.800;2023-04-30T10:43:24;99482.56;;;20.68;nan
63556;BME280;49700;48.072;7.800;2023-04-30T10:45:49;99491.41;;;20.60;nan
63556;BME280;49700;48.072;7.800;2023-04-30T10:48:16;99489.41;;;20.62;nan
63556;BME280;49700;48.072;7.800;2023-04-30T10:50:49;99485.09;;;20.77;nan
63556;BME280;49700;48.072;7.800;2023-04-30T10:53:19;99481.94;;;20.90;nan
63556;BME280;49700;48.072;7.800;2023-04-30T10:56:07;99476.25;;;21.02;nan
63556;BME280;49700;48.072;7.800;2023-04-30T10:58:39;99476.94;;;20.95;nan
63556;BME280;49700;48.072;7.800;2023-04-30T11:01:09;99472.22;;;20.89;nan
63556;BME280;49700;48.072;7.800;2023-04-30T11:03:36;99477.56;;;20.97;nan
63556;BME280;49700;48.072;7.800;2023-04-30T11:06:10;99478.22;;;21.16;nan
63556;BME280;49700;48.072;7.800;2023-04-30T11:08:37;99468.22;;;21.18;nan
63556;BME280;49700;48.072;7.800;2023-04-30T11:11:02;99468.53;;;21.23;nan
63556;BME280;49700;48.072;7.800;2023-04-30T11:13:43;99471.00;;;21.33;nan
63556;BME280;49700;48.072;7.800;2023-04-30T11:16:09;99462.53;;;21.13;nan
63556;BME280;49700;48.072;7.800;2023-04-30T11:18:40;99460.88;;;21.12;nan
63556;BME280;49700;48.072;7.800;2023-04-30T11:21:07;99460.91;;;21.04;nan
63556;BME280;49700;48.072;7.800;2023-04-30T11:23:33;99463.41;;;20.89;nan
63556;BME280;49700;48.072;7.800;2023-04-30T11:25:59;99459.69;;;21.06;nan
63556;BME280;49700;48.072;7.800;2023-04-30T11:28:26;99456.84;;;21.16;nan
63556;BME280;49700;48.072;7.800;2023-04-30T11:30:54;99450.50;;;21.17;nan
63556;BME280;49700;48.072;7.800;2023-04-30T11:33:21;99454.53;;;21.13;nan
63556;BME280;49700;48.072;7.800;2023-04-30T11:35:48;99458.00;;;21.21;nan
63556;BME280;49700;48.072;7.800;2023-04-30T11:38:19;99465.34;;;21.19;nan
63556;BME280;49700;48.072;7.800;2023-04-30T11:40:46;99455.56;;;21.12;nan
63556;BME280;49700;48.072;7.800;2023-04-30T11:43:29;99453.88;;;21.03;nan
63556;BME280;49700;48.072;7.800;2023-04-30T11:46:38;99456.50;;;21.19;nan
63556;BME280;49700;48.072;7.800;2023-04-30T11:48:56;99453.50;;;21.38;nan
63556;BME280;49700;48.072;7.800;2023-04-30T11:51:22;99440.94;;;21.55;nan
63556;BME280;49700;48.072;7.800;2023-04-30T11:53:50;99445.75;;;21.60;nan
63556;BME280;49700;48.072;7.800;2023-04-30T11:56:19;99446.06;;;21.65;nan
63556;BME280;49700;48.072;7.800;2023-04-30T11:58:46;99443.19;;;21.75;nan
63556;BME280;49700;48.072;7.800;2023-04-30T12:01:13;99435.75;;;21.93;nan
63556;BME280;49700;48.072;7.800;2023-04-30T12:03:46;99433.88;;;22.02;nan
63556;BME280;49700;48.072;7.800;2023-04-30T12:06:20;99436.84;;;21.76;nan
63556;BME280;49700;48.072;7.800;2023-04-30T12:08:46;99445.13;;;21.58;nan
63556;BME280;49700;48.072;7.800;2023-04-30T12:11:30;99446.63;;;21.52;nan
63556;BME280;49700;48.072;7.800;2023-04-30T12:14:00;99433.56;;;21.57;nan
63556;BME280;49700;48.072;7.800;2023-04-30T12:16:37;99436.75;;;21.61;nan
63556;BME280;49700;48.072;7.800;2023-04-30T12:19:03;99442.72;;;21.71;nan
63556;BME280;49700;48.072;7.800;2023-04-30T12:21:29;99437.63;;;21.84;nan
63556;BME280;49700;48.072;7.800;2023-04-30T12:23:54;99432.84;;;21.72;nan
63556;BME280;49700;48.072;7.800;2023-04-30T12:26:20;99426.09;;;21.53;nan
63556;BME280;49700;48.072;7.800;2023-04-30T12:28:47;99414.78;;;21.26;nan
63556;BME280;49700;48.072;7.800;2023-04-30T12:31:15;99425.13;;;21.21;nan
63556;BME280;49700;48.072;7.800;2023-04-30T12:33:42;99420.81;;;21.12;nan
63556;BME280;49700;48.072;7.800;2023-04-30T12:36:10;99425.63;;;21.16;nan
63556;BME280;49700;48.072;7.800;2023-04-30T12:38:36;99419.13;;;21.11;nan
63556;BME280;49700;48.072;7.800;2023-04-30T12:41:03;99431.66;;;21.18;nan
63556;BME280;49700;48.072;7.800;2023-04-30T12:43:29;99432.66;;;21.17;nan
63556;BME280;49700;48.072;7.800;2023-04-30T12:45:54;99431.34;;;21.05;nan
63556;BME280;49700;48.072;7.800;2023-04-30T12:48:24;99426.00;;;21.05;nan
63556;BME280;49700;48.072;7.800;2023-04-30T12:50:57;99423.13;;;21.23;nan
63556;BME280;49700;48.072;7.800;2023-04-30T12:53:23;99428.47;;;21.39;nan
63556;BME280;49700;48.072;7.800;2023-04-30T12:58:37;99422.88;;;21.57;nan
63556;BME280;49700;48.072;7.800;2023-04-30T13:01:02;99427.34;;;21.65;nan
63556;BME280;49700;48.072;7.800;2023-04-30T13:03:28;99422.78;;;21.42;nan
63556;BME280;49700;48.072;7.800;2023-04-30T13:05:53;99427.06;;;21.52;nan
63556;BME280;49700;48.072;7.800;2023-04-30T13:08:19;99424.72;;;21.57;nan
63556;BME280;49700;48.072;7.800;2023-04-30T13:10:46;99421.66;;;21.68;nan
63556;BME280;49700;48.072;7.800;2023-04-30T13:13:13;99421.38;;;21.63;nan
63556;BME280;49700;48.072;7.800;2023-04-30T13:15:39;99418.69;;;21.55;nan
63556;BME280;49700;48.072;7.800;2023-04-30T13:18:06;99426.94;;;21.45;nan
63556;BME280;49700;48.072;7.800;2023-04-30T13:20:35;99420.06;;;21.51;nan
63556;BME280;49700;48.072;7.800;2023-04-30T13:23:04;99421.41;;;21.47;nan
63556;BME280;49700;48.072;7.800;2023-04-30T13:25:34;99417.78;;;21.39;nan
63556;BME280;49700;48.072;7.800;2023-04-30T13:28:00;99416.94;;;21.39;nan
63556;BME280;49700;48.072;7.800;2023-04-30T13:30:28;99411.75;;;21.37;nan
63556;BME280;49700;48.072;7.800;2023-04-30T13:32:54;99429.44;;;21.38;nan
63556;BME280;49700;48.072;7.800;2023-04-30T13:35:19;99417.94;;;21.30;nan
63556;BME280;49700;48.072;7.800;2023-04-30T13:37:45;99412.44;;;21.31;nan
63556;BME280;49700;48.072;7.800;2023-04-30T13:40:13;99404.81;;;21.12;nan
63556;BME280;49700;48.072;7.800;2023-04-30T13:42:41;99406.31;;;21.14;nan
63556;BME280;49700;48.072;7.800;2023-04-30T13:45:07;99397.28;;;21.15;nan
63556;BME280;49700;48.072;7.800;2023-04-30T13:47:33;99409.59;;;21.16;nan